Time;durP1;ratioP1;P1;durP2;ratioP2;P2;SDS_P1;SDS_P2;PMS_P1;PMS_P2;Temp;Humidity;BMP_temperature;BMP_pressure;BME280_temperature;BME280_humidity;BME280_pressure;Samples;Min_cycle;Max_cycle;Signal;HPM_P1;HPM_P2
2022/09/11 00:01:32;;;;;;;1.75;0.43;;;25.90;77.00;;;;;;5058139;28;20464;-73
2022/09/11 00:04:01;;;;;;;1.08;0.30;;;26.40;73.20;;;;;;5054387;28;20120;-72
2022/09/11 00:06:29;;;;;;;1.35;0.30;;;25.90;71.40;;;;;;5066666;28;20474;-72
2022/09/11 00:09:00;;;;;;;0.90;0.20;;;25.50;73.50;;;;;;5055858;28;20032;-70
2022/09/11 00:11:31;;;;;;;2.20;0.55;;;25.00;74.30;;;;;;5051223;28;20021;-72
2022/09/11 00:13:59;;;;;;;1.90;0.52;;;24.90;74.10;;;;;;5051810;28;20112;-72
2022/09/11 00:16:36;;;;;;;2.45;0.50;;;25.20;74.50;;;;;;5048859;28;20076;-71
2022/09/11 00:19:12;;;;;;;1.67;0.63;;;25.40;73.60;;;;;;5035528;28;20410;-71
2022/09/11 00:21:39;;;;;;;1.25;0.20;;;25.70;74.10;;;;;;5053132;28;20041;-72
2022/09/11 00:24:10;;;;;;;1.70;0.88;;;25.70;72.40;;;;;;5059467;28;20070;-72
2022/09/11 00:26:41;;;;;;;1.67;0.28;;;26.20;72.30;;;;;;5047343;28;20857;-72
2022/09/11 00:29:09;;;;;;;2.83;0.85;;;26.10;70.80;;;;;;5054019;28;20508;-72
2022/09/11 00:31:36;;;;;;;0.77;0.30;;;26.20;68.60;;;;;;5051059;28;20057;-72
2022/09/11 00:34:05;;;;;;;0.52;0.20;;;26.00;68.80;;;;;;5062701;28;20021;-72
2022/09/11 00:36:35;;;;;;;1.08;0.40;;;25.70;69.80;;;;;;5054805;28;20029;-72
2022/09/11 00:39:03;;;;;;;0.57;0.20;;;25.70;71.30;;;;;;5051262;28;20025;-72
2022/09/11 00:41:37;;;;;;;1.58;0.35;;;25.90;69.50;;;;;;5049797;28;20044;-72
2022/09/11 00:44:17;;;;;;;2.05;0.20;;;25.70;70.90;;;;;;5048372;28;20025;-72
2022/09/11 00:46:46;;;;;;;2.40;0.50;;;26.40;72.30;;;;;;5065254;28;20032;-72
2022/09/11 00:49:26;;;;;;;1.48;0.32;;;26.60;72.10;;;;;;5059691;28;20025;-72
2022/09/11 00:52:07;;;;;;;1.02;0.20;;;26.60;70.90;;;;;;5062881;28;20028;-73
2022/09/11 00:54:44;;;;;;;1.02;0.30;;;26.60;68.60;;;;;;5060495;28;20490;-74
2022/09/11 00:57:12;;;;;;;1.92;0.50;;;26.30;69.90;;;;;;5049275;28;20039;-73
2022/09/11 00:59:42;;;;;;;0.43;0.20;;;26.10;69.90;;;;;;5065763;28;20024;-73
2022/09/11 01:02:13;;;;;;;1.30;0.43;;;26.60;70.10;;;;;;5050866;28;20056;-74
2022/09/11 01:04:41;;;;;;;0.80;0.30;;;27.10;67.80;;;;;;5075967;28;20024;-73
2022/09/11 01:07:09;;;;;;;2.30;0.63;;;27.00;68.50;;;;;;5062588;28;20033;-73
2022/09/11 01:09:36;;;;;;;1.15;0.30;;;26.90;67.80;;;;;;5065012;28;20021;-72
2022/09/11 01:12:22;;;;;;;2.60;0.20;;;27.10;67.20;;;;;;5058668;28;20487;-72
2022/09/11 01:15:04;;;;;;;1.17;0.38;;;27.10;67.80;;;;;;5066703;28;20482;-75
2022/09/11 01:17:53;;;;;;;2.28;0.22;;;27.20;65.30;;;;;;5060654;28;20061;-73
2022/09/11 01:20:37;;;;;;;0.63;0.32;;;26.80;67.20;;;;;;5060803;28;20034;-74
2022/09/11 01:23:06;;;;;;;1.88;0.30;;;26.50;67.80;;;;;;5052902;28;20087;-73
2022/09/11 01:25:59;;;;;;;0.77;0.25;;;26.70;68.30;;;;;;5052204;28;20029;-73
2022/09/11 01:28:36;;;;;;;0.65;0.30;;;26.80;65.30;;;;;;5046366;28;20067;-73
2022/09/11 01:31:09;;;;;;;0.93;0.30;;;26.10;66.70;;;;;;5074916;28;20044;-73
2022/09/11 01:34:01;;;;;;;0.40;0.20;;;25.70;68.10;;;;;;5076854;28;20024;-74
2022/09/11 01:36:39;;;;;;;1.20;0.10;;;25.60;65.30;;;;;;5067497;28;20028;-74
2022/09/11 01:39:06;;;;;;;1.25;0.20;;;25.40;67.20;;;;;;5063170;28;20475;-73
2022/09/11 01:42:00;;;;;;;2.25;0.20;;;24.60;67.70;;;;;;5060800;28;20052;-73
2022/09/11 01:45:00;;;;;;;0.88;0.30;;;25.00;67.60;;;;;;5064557;28;20028;-73
2022/09/11 01:47:29;;;;;;;0.80;0.32;;;24.60;66.10;;;;;;5064787;28;20494;-73
2022/09/11 01:50:05;;;;;;;2.33;0.40;;;24.90;68.70;;;;;;5075510;28;20044;-74
2022/09/11 01:52:57;;;;;;;1.42;0.70;;;25.40;69.90;;;;;;5055734;28;20060;-74
2022/09/11 01:55:36;;;;;;;2.67;1.30;;;25.90;70.10;;;;;;5066094;28;20024;-73
2022/09/11 01:58:08;;;;;;;1.23;0.40;;;26.40;69.70;;;;;;5059100;28;20028;-73
2022/09/11 02:00:38;;;;;;;2.13;0.85;;;26.80;68.90;;;;;;5050355;28;20079;-72
2022/09/11 02:03:29;;;;;;;1.90;0.30;;;27.00;70.10;;;;;;5053188;28;20032;-72
2022/09/11 02:06:05;;;;;;;0.90;0.20;;;27.20;69.90;;;;;;5076245;28;20025;-73
2022/09/11 02:08:36;;;;;;;5.32;0.40;;;27.40;69.40;;;;;;5058570;28;20029;-72
2022/09/11 02:14:42;;;;;;;0.75;0.20;;;26.90;64.30;;;;;;4991540;28;20041;-73
2022/09/11 02:17:44;;;;;;;2.03;0.15;;;27.00;66.90;;;;;;5049503;28;20123;-73
2022/09/11 02:20:12;;;;;;;1.17;0.30;;;27.10;66.60;;;;;;5042922;28;20052;-72
2022/09/11 02:22:39;;;;;;;1.38;0.30;;;27.30;67.70;;;;;;5054404;28;20518;-73
2022/09/11 02:25:10;;;;;;;2.97;0.65;;;27.60;67.70;;;;;;5056810;28;20052;-74
2022/09/11 02:27:38;;;;;;;0.70;0.30;;;27.60;64.30;;;;;;5049015;28;20131;-75
2022/09/11 02:30:05;;;;;;;0.57;0.28;;;27.70;65.30;;;;;;5049267;28;20041;-75
2022/09/11 02:32:36;;;;;;;0.85;0.25;;;27.90;65.90;;;;;;5050741;28;20060;-76
2022/09/11 02:35:05;;;;;;;0.93;0.30;;;27.90;66.10;;;;;;5053344;28;20033;-75
2022/09/11 02:37:45;;;;;;;0.60;0.38;;;28.10;66.10;;;;;;5053595;28;20448;-76
2022/09/11 02:40:25;;;;;;;3.15;0.20;;;28.20;65.70;;;;;;5059600;28;20036;-75
2022/09/11 02:42:59;;;;;;;1.75;0.50;;;27.90;64.90;;;;;;5058426;28;20031;-73
2022/09/11 02:45:52;;;;;;;1.40;0.32;;;27.80;65.50;;;;;;5067082;28;20032;-73
2022/09/11 02:48:28;;;;;;;2.15;0.40;;;27.80;65.10;;;;;;5060820;28;20398;-73
2022/09/11 02:51:45;;;;;;;2.13;0.43;;;27.90;65.10;;;;;;5059145;28;20020;-74
2022/09/11 02:54:31;;;;;;;0.50;0.20;;;27.90;63.70;;;;;;5016288;28;20534;-73
2022/09/11 02:57:41;;;;;;;1.45;0.35;;;27.70;64.30;;;;;;5065972;28;20028;-74
2022/09/11 03:00:09;;;;;;;1.85;0.20;;;27.70;66.50;;;;;;5025842;28;20036;-74
2022/09/11 03:02:43;;;;;;;1.25;0.30;;;27.60;64.30;;;;;;5056017;28;20054;-73
2022/09/11 03:05:12;;;;;;;2.63;0.40;;;27.70;63.70;;;;;;5059979;28;20025;-74
2022/09/11 03:07:39;;;;;;;1.60;0.63;;;28.00;65.20;;;;;;5055280;28;20052;-74
2022/09/11 03:10:10;;;;;;;0.57;0.25;;;28.10;63.60;;;;;;5065713;28;20103;-74
2022/09/11 03:12:38;;;;;;;1.17;0.20;;;27.90;62.50;;;;;;5088469;28;20466;-75
2022/09/11 03:15:08;;;;;;;1.60;0.15;;;27.50;63.70;;;;;;5076692;28;20090;-74
2022/09/11 03:17:35;;;;;;;1.05;0.20;;;27.60;66.10;;;;;;5068640;28;20115;-75
2022/09/11 03:20:04;;;;;;;1.15;0.32;;;27.80;66.30;;;;;;5066234;28;20073;-75
2022/09/11 03:22:31;;;;;;;1.27;0.30;;;27.70;65.50;;;;;;5058805;28;20070;-77
2022/09/11 03:24:59;;;;;;;1.48;0.20;;;27.90;64.10;;;;;;5055775;28;20082;-75
2022/09/11 03:27:27;;;;;;;0.73;0.20;;;27.90;62.60;;;;;;5050554;28;20624;-73
2022/09/11 03:29:55;;;;;;;0.88;0.25;;;27.60;63.90;;;;;;5052700;28;20033;-72
2022/09/11 03:32:23;;;;;;;2.13;0.20;;;27.50;63.50;;;;;;5055223;28;20035;-74
2022/09/11 03:34:50;;;;;;;1.27;0.30;;;27.50;65.40;;;;;;5053213;28;20389;-73
2022/09/11 03:37:17;;;;;;;1.33;0.22;;;27.40;63.10;;;;;;5057406;28;20544;-73
2022/09/11 03:39:46;;;;;;;1.05;0.30;;;27.20;63.00;;;;;;5055082;28;20064;-73
2022/09/11 03:42:13;;;;;;;1.45;0.30;;;26.70;62.00;;;;;;5058844;28;20458;-73
2022/09/11 03:44:41;;;;;;;0.95;0.30;;;26.10;62.50;;;;;;5053025;28;20108;-73
2022/09/11 03:47:08;;;;;;;0.88;0.20;;;25.90;63.80;;;;;;5050769;28;20040;-73
2022/09/11 03:49:35;;;;;;;2.10;0.30;;;25.90;64.00;;;;;;5054752;28;20101;-73
2022/09/11 03:52:03;;;;;;;1.55;0.30;;;25.90;63.60;;;;;;5052743;28;20024;-73
2022/09/11 03:54:31;;;;;;;0.57;0.22;;;26.00;64.70;;;;;;5055430;28;20071;-74
2022/09/11 03:56:59;;;;;;;2.03;0.30;;;26.10;65.90;;;;;;5055825;28;20051;-73
2022/09/11 03:59:26;;;;;;;0.30;0.10;;;26.40;66.20;;;;;;5057510;28;20038;-73
2022/09/11 04:01:54;;;;;;;1.00;0.20;;;26.80;64.80;;;;;;5053942;28;20045;-74
2022/09/11 04:04:21;;;;;;;0.75;0.17;;;26.80;64.50;;;;;;5047947;28;20028;-74
2022/09/11 04:06:49;;;;;;;1.67;0.20;;;26.80;63.30;;;;;;5052766;28;20033;-74
2022/09/11 04:09:16;;;;;;;0.85;0.25;;;26.40;64.20;;;;;;5067864;28;20386;-73
2022/09/11 04:11:44;;;;;;;0.28;0.20;;;26.40;64.00;;;;;;5052941;28;20077;-75
2022/09/11 04:14:11;;;;;;;1.45;0.20;;;26.10;62.30;;;;;;5058039;28;20466;-74
2022/09/11 04:16:38;;;;;;;1.38;0.65;;;25.70;64.60;;;;;;5053413;28;20122;-74
2022/09/11 04:19:06;;;;;;;2.38;0.63;;;25.60;63.20;;;;;;5051419;28;20542;-73
2022/09/11 04:21:33;;;;;;;1.10;0.50;;;25.40;63.80;;;;;;5051606;28;20127;-74
2022/09/11 04:24:01;;;;;;;1.45;0.28;;;25.40;64.50;;;;;;5054290;28;20028;-72
2022/09/11 04:26:31;;;;;;;1.55;0.20;;;25.40;65.80;;;;;;5050183;28;20110;-74
2022/09/11 04:29:00;;;;;;;1.30;0.20;;;25.20;64.60;;;;;;5049542;28;20036;-74
2022/09/11 04:31:27;;;;;;;0.30;0.20;;;25.20;65.50;;;;;;5050242;28;20065;-71
2022/09/11 04:33:55;;;;;;;1.08;0.20;;;25.20;63.80;;;;;;5051084;28;20025;-73
2022/09/11 04:36:24;;;;;;;0.28;0.15;;;25.20;65.20;;;;;;5060716;28;20087;-72
2022/09/11 04:38:56;;;;;;;0.35;0.13;;;25.20;65.10;;;;;;5070143;28;20040;-72
2022/09/11 04:41:25;;;;;;;2.22;0.63;;;25.30;65.70;;;;;;5062637;28;20032;-73
2022/09/11 04:43:57;;;;;;;1.00;0.20;;;25.20;65.90;;;;;;5055057;28;20033;-73
2022/09/11 04:46:25;;;;;;;3.30;0.30;;;25.00;64.70;;;;;;5063743;28;20029;-74
2022/09/11 04:48:54;;;;;;;0.55;0.20;;;25.00;65.00;;;;;;5058926;28;20108;-73
2022/09/11 04:51:31;;;;;;;0.93;0.32;;;25.20;66.30;;;;;;5061952;28;20029;-74
2022/09/11 04:53:59;;;;;;;1.27;0.30;;;25.20;65.40;;;;;;5061717;28;20037;-74
2022/09/11 04:56:28;;;;;;;2.15;0.30;;;25.20;65.80;;;;;;5064125;28;20386;-73
2022/09/11 04:59:01;;;;;;;3.05;0.55;;;25.10;65.70;;;;;;5069195;28;20024;-73
2022/09/11 05:01:30;;;;;;;0.60;0.10;;;24.90;65.00;;;;;;5063588;28;20568;-74
2022/09/11 05:03:59;;;;;;;4.20;0.40;;;24.80;66.10;;;;;;5071080;28;20036;-72
2022/09/11 05:06:27;;;;;;;1.85;0.38;;;24.70;66.70;;;;;;5066763;28;20028;-73
2022/09/11 05:08:55;;;;;;;0.30;0.20;;;24.60;66.20;;;;;;5061820;28;20051;-74
2022/09/11 05:11:24;;;;;;;1.60;0.55;;;24.50;66.40;;;;;;5051515;28;20037;-73
2022/09/11 05:13:53;;;;;;;0.93;0.30;;;24.50;66.50;;;;;;5056885;28;20091;-72
2022/09/11 05:16:20;;;;;;;2.33;0.73;;;24.30;67.10;;;;;;5063262;28;20020;-73
2022/09/11 05:18:51;;;;;;;1.00;0.28;;;24.20;66.90;;;;;;5057486;28;20033;-73
2022/09/11 05:21:21;;;;;;;1.33;0.30;;;24.00;66.40;;;;;;5079663;28;20090;-73
2022/09/11 05:23:53;;;;;;;2.38;1.00;;;23.90;66.70;;;;;;5069237;28;20028;-73
2022/09/11 05:26:23;;;;;;;1.15;0.30;;;23.90;67.50;;;;;;5054353;28;20017;-74
2022/09/11 05:28:59;;;;;;;0.77;0.20;;;24.10;69.80;;;;;;5050379;28;20392;-74
2022/09/11 05:31:30;;;;;;;2.13;0.22;;;24.30;67.10;;;;;;5054336;28;20056;-73
2022/09/11 05:33:59;;;;;;;0.80;0.60;;;24.20;66.60;;;;;;5051097;28;20498;-73
2022/09/11 05:36:27;;;;;;;1.60;0.63;;;24.30;67.10;;;;;;5051736;28;20091;-74
2022/09/11 05:38:54;;;;;;;0.63;0.30;;;24.20;67.20;;;;;;5062151;28;20024;-73
2022/09/11 05:41:22;;;;;;;0.80;0.20;;;24.30;69.00;;;;;;5062237;28;20036;-74
2022/09/11 05:43:50;;;;;;;0.77;0.32;;;24.20;67.90;;;;;;5070218;28;20032;-73
2022/09/11 05:46:19;;;;;;;1.70;0.85;;;24.00;67.50;;;;;;5069418;28;20033;-73
2022/09/11 05:48:47;;;;;;;0.70;0.45;;;23.80;68.00;;;;;;5071359;28;20129;-73
2022/09/11 05:51:20;;;;;;;0.93;0.38;;;23.80;68.60;;;;;;5052884;28;20033;-74
2022/09/11 05:53:52;;;;;;;0.38;0.20;;;23.70;68.20;;;;;;5050921;28;20082;-73
2022/09/11 05:56:21;;;;;;;1.63;0.20;;;23.60;69.10;;;;;;5065703;28;20024;-74
2022/09/11 05:58:52;;;;;;;0.60;0.40;;;23.50;68.70;;;;;;5071304;28;20123;-73
2022/09/11 06:01:25;;;;;;;1.20;0.20;;;23.40;68.90;;;;;;5068282;28;20402;-74
2022/09/11 06:03:53;;;;;;;0.40;0.10;;;23.40;68.20;;;;;;5067841;28;20035;-74
2022/09/11 06:06:22;;;;;;;1.00;0.30;;;23.20;68.60;;;;;;5061514;28;20056;-75
2022/09/11 06:08:51;;;;;;;2.83;0.50;;;23.10;69.30;;;;;;5069114;28;20030;-74
2022/09/11 06:11:21;;;;;;;1.98;0.38;;;23.10;68.60;;;;;;5068362;28;20025;-75
2022/09/11 06:13:49;;;;;;;2.22;0.40;;;23.10;69.90;;;;;;5078485;28;20021;-73
2022/09/11 06:16:24;;;;;;;0.40;0.20;;;23.10;69.50;;;;;;5064302;28;20121;-74
2022/09/11 06:18:53;;;;;;;0.50;0.20;;;23.20;69.50;;;;;;5051103;28;20111;-74
2022/09/11 06:21:28;;;;;;;2.10;0.60;;;23.30;69.50;;;;;;5064122;28;20102;-73
2022/09/11 06:23:55;;;;;;;1.73;0.75;;;23.20;69.30;;;;;;5066651;28;20494;-74
2022/09/11 06:26:25;;;;;;;0.90;0.50;;;23.00;69.80;;;;;;5068186;28;20040;-73
2022/09/11 06:28:53;;;;;;;0.68;0.30;;;22.90;70.30;;;;;;5054293;28;20479;-73
2022/09/11 06:31:24;;;;;;;1.08;0.40;;;22.80;69.70;;;;;;5067891;28;20558;-72
2022/09/11 06:33:52;;;;;;;2.38;0.45;;;22.90;69.00;;;;;;5052648;28;20033;-73
2022/09/11 06:36:30;;;;;;;2.38;0.32;;;22.80;70.00;;;;;;5066546;28;20043;-73
2022/09/11 06:38:58;;;;;;;0.73;0.43;;;22.90;70.10;;;;;;5056590;28;20025;-73
2022/09/11 06:41:27;;;;;;;0.75;0.32;;;22.80;70.10;;;;;;5065441;28;20082;-73
2022/09/11 06:43:54;;;;;;;0.98;0.30;;;22.70;69.80;;;;;;5073138;28;20032;-74
2022/09/11 06:46:23;;;;;;;1.20;0.50;;;22.60;70.40;;;;;;5068757;28;20040;-75
2022/09/11 06:48:52;;;;;;;1.02;0.40;;;22.50;70.40;;;;;;5073778;28;20025;-74
2022/09/11 06:51:21;;;;;;;2.53;0.57;;;22.50;69.80;;;;;;5072278;28;20119;-75
2022/09/11 06:53:52;;;;;;;1.85;0.40;;;22.40;70.40;;;;;;5067898;28;20108;-74
2022/09/11 06:56:21;;;;;;;1.00;0.60;;;22.40;71.10;;;;;;5056060;28;20120;-74
2022/09/11 06:58:49;;;;;;;3.85;1.42;;;22.30;71.30;;;;;;5055564;28;20068;-73
2022/09/11 07:01:18;;;;;;;1.85;0.45;;;22.10;72.20;;;;;;5064778;28;20093;-74
2022/09/11 07:03:52;;;;;;;0.57;0.30;;;22.00;70.40;;;;;;5063214;28;20037;-73
2022/09/11 07:06:21;;;;;;;1.80;0.65;;;21.80;70.80;;;;;;5057271;28;20467;-75
2022/09/11 07:08:59;;;;;;;2.83;0.50;;;21.70;71.20;;;;;;5055235;28;20033;-74
2022/09/11 07:11:33;;;;;;;1.88;0.50;;;21.60;71.60;;;;;;5054031;28;20115;-75
2022/09/11 07:14:05;;;;;;;4.72;0.40;;;21.50;72.30;;;;;;5060194;28;20081;-73
2022/09/11 07:16:33;;;;;;;3.17;0.65;;;21.40;72.40;;;;;;5070773;28;20051;-74
2022/09/11 07:19:02;;;;;;;1.08;0.30;;;21.30;72.60;;;;;;5071357;28;20323;-74
2022/09/11 07:21:30;;;;;;;1.40;0.40;;;21.20;72.30;;;;;;5057036;28;20495;-74
2022/09/11 07:23:59;;;;;;;1.67;0.70;;;21.00;71.20;;;;;;5055385;28;20029;-74
2022/09/11 07:26:29;;;;;;;2.97;0.40;;;20.90;70.40;;;;;;5059452;28;20032;-73
2022/09/11 07:28:57;;;;;;;2.25;0.30;;;20.80;70.80;;;;;;5054863;28;20099;-74
2022/09/11 07:31:31;;;;;;;2.15;0.65;;;20.60;70.90;;;;;;5055093;28;20052;-74
2022/09/11 07:33:59;;;;;;;0.65;0.22;;;20.50;70.90;;;;;;5052354;28;20032;-72
2022/09/11 07:36:32;;;;;;;0.40;0.30;;;20.30;70.10;;;;;;5061308;28;20098;-74
2022/09/11 07:39:02;;;;;;;2.90;0.40;;;20.20;69.80;;;;;;5053914;28;20120;-74
2022/09/11 07:41:30;;;;;;;0.70;0.43;;;20.10;70.10;;;;;;5066466;28;20036;-74
2022/09/11 07:43:59;;;;;;;1.15;0.63;;;20.00;70.30;;;;;;5058531;28;20067;-74
2022/09/11 07:46:28;;;;;;;1.17;0.50;;;19.90;70.50;;;;;;5071763;28;20025;-74
2022/09/11 07:48:56;;;;;;;0.82;0.40;;;19.80;70.30;;;;;;5071185;28;20471;-73
2022/09/11 07:51:25;;;;;;;0.95;0.40;;;19.70;70.30;;;;;;5063575;28;20054;-74
2022/09/11 07:53:53;;;;;;;0.82;0.28;;;19.60;70.60;;;;;;5069046;28;20036;-74
2022/09/11 07:56:23;;;;;;;1.60;0.40;;;19.50;71.10;;;;;;5067804;28;20112;-73
2022/09/11 07:58:51;;;;;;;4.30;1.10;;;19.40;71.40;;;;;;5057520;28;20028;-73
2022/09/11 08:01:21;;;;;;;2.00;0.50;;;19.30;71.40;;;;;;5066494;28;20040;-72
2022/09/11 08:03:53;;;;;;;4.97;0.68;;;19.20;71.80;;;;;;5071011;28;20040;-73
2022/09/11 08:06:22;;;;;;;1.92;0.93;;;19.10;72.20;;;;;;5070385;28;20060;-73
2022/09/11 08:08:56;;;;;;;1.27;0.40;;;18.90;72.80;;;;;;5071829;28;20031;-74
2022/09/11 08:11:24;;;;;;;1.38;0.65;;;18.90;73.20;;;;;;5061827;28;20040;-73
2022/09/11 08:13:53;;;;;;;3.38;0.73;;;18.80;73.00;;;;;;5068347;28;20025;-73
2022/09/11 08:16:23;;;;;;;1.17;0.60;;;18.70;73.10;;;;;;5051829;28;20021;-73
2022/09/11 08:18:51;;;;;;;1.80;0.35;;;18.60;73.50;;;;;;5053717;28;20527;-73
2022/09/11 08:21:19;;;;;;;1.88;0.50;;;18.50;73.40;;;;;;5068761;28;20049;-73
2022/09/11 08:23:47;;;;;;;2.13;0.45;;;18.40;73.60;;;;;;5052505;28;20021;-73
2022/09/11 08:26:24;;;;;;;0.75;0.30;;;18.40;73.60;;;;;;5058673;28;20082;-73
2022/09/11 08:28:53;;;;;;;2.22;0.50;;;18.30;73.60;;;;;;5072317;28;20016;-72
2022/09/11 08:31:25;;;;;;;1.52;0.38;;;18.20;73.90;;;;;;5060349;28;20044;-73
2022/09/11 08:33:56;;;;;;;2.53;0.90;;;18.20;74.20;;;;;;5055432;28;20097;-74
2022/09/11 08:36:24;;;;;;;2.40;0.60;;;18.10;75.60;;;;;;5067259;28;20032;-73
2022/09/11 08:38:52;;;;;;;4.88;1.20;;;18.00;76.70;;;;;;5071917;28;20028;-72
2022/09/11 08:41:55;;;;;;;3.67;1.13;;;17.90;77.50;;;;;;5059838;28;20036;-74
2022/09/11 08:44:46;;;;;;;1.08;0.57;;;17.80;78.30;;;;;;5058974;28;20052;-73
2022/09/11 08:47:24;;;;;;;1.48;0.80;;;17.70;79.00;;;;;;5068681;28;20064;-75
2022/09/11 08:50:19;;;;;;;3.50;0.65;;;17.60;80.30;;;;;;5053917;28;20032;-74
2022/09/11 08:52:47;;;;;;;3.83;0.85;;;17.50;81.30;;;;;;5061582;28;20028;-74
2022/09/11 08:55:23;;;;;;;4.68;1.55;;;17.40;81.80;;;;;;5069415;28;20415;-73
2022/09/11 08:57:59;;;;;;;1.65;0.73;;;17.30;82.40;;;;;;5070280;28;20449;-73
2022/09/11 09:00:52;;;;;;;1.90;0.93;;;17.20;82.80;;;;;;5072311;28;20056;-73
2022/09/11 09:03:47;;;;;;;2.42;0.90;;;17.10;82.80;;;;;;5070351;28;20036;-73
2022/09/11 09:06:46;;;;;;;2.92;0.98;;;17.10;83.20;;;;;;5058129;28;20056;-73
2022/09/11 09:09:41;;;;;;;3.35;0.65;;;17.00;84.10;;;;;;5052512;28;20043;-73
2022/09/11 09:12:14;;;;;;;2.22;0.93;;;16.90;83.80;;;;;;5068098;28;20029;-72
2022/09/11 09:15:03;;;;;;;1.65;0.60;;;16.80;84.40;;;;;;5069420;28;20029;-73
2022/09/11 09:17:48;;;;;;;1.80;0.47;;;16.70;84.70;;;;;;5051349;28;20110;-75
2022/09/11 09:20:22;;;;;;;2.47;0.93;;;16.60;85.20;;;;;;5056532;28;20029;-73
2022/09/11 09:22:49;;;;;;;2.13;0.68;;;16.50;85.80;;;;;;5051535;28;20036;-75
2022/09/11 09:25:22;;;;;;;2.13;1.15;;;16.40;85.40;;;;;;5052741;28;20055;-74
2022/09/11 09:27:52;;;;;;;3.30;1.30;;;16.30;85.60;;;;;;5053844;28;20046;-72
2022/09/11 09:30:26;;;;;;;1.35;0.70;;;16.20;86.20;;;;;;5068510;28;20044;-72
2022/09/11 09:33:05;;;;;;;2.70;1.15;;;16.10;86.10;;;;;;5065705;28;20115;-73
2022/09/11 09:35:40;;;;;;;3.30;1.23;;;16.10;86.60;;;;;;5061574;28;20034;-73
2022/09/11 09:38:20;;;;;;;2.70;0.90;;;16.00;86.10;;;;;;5071963;28;20425;-73
2022/09/11 09:41:16;;;;;;;2.35;0.90;;;15.90;86.20;;;;;;5061346;28;20455;-73
2022/09/11 09:44:07;;;;;;;1.58;0.63;;;15.90;85.50;;;;;;5051960;28;20387;-73
2022/09/11 09:46:47;;;;;;;2.88;0.60;;;15.90;84.70;;;;;;5069782;28;20029;-73
2022/09/11 09:49:24;;;;;;;2.03;0.63;;;15.80;84.40;;;;;;5069352;28;20043;-75
2022/09/11 09:51:53;;;;;;;2.10;0.50;;;15.80;84.20;;;;;;5060207;28;20471;-72
2022/09/11 09:54:25;;;;;;;2.78;0.85;;;15.80;84.60;;;;;;5063990;28;20052;-73
2022/09/11 09:57:12;;;;;;;0.32;0.30;;;15.80;84.60;;;;;;5051404;28;20374;-75
2022/09/11 09:59:57;;;;;;;2.28;0.55;;;15.70;84.80;;;;;;5053072;28;20130;-74
2022/09/11 10:02:38;;;;;;;2.90;0.55;;;15.70;84.90;;;;;;5069458;28;20051;-72
2022/09/11 10:05:29;;;;;;;1.42;0.65;;;15.70;84.50;;;;;;5059713;28;20029;-73
2022/09/11 10:08:04;;;;;;;1.80;0.80;;;15.60;84.40;;;;;;5050926;28;20040;-73
2022/09/11 10:10:40;;;;;;;0.65;0.55;;;15.60;84.20;;;;;;5062632;28;20024;-73
2022/09/11 10:13:27;;;;;;;2.10;0.50;;;15.50;84.30;;;;;;5071237;28;20162;-73
2022/09/11 10:15:58;;;;;;;1.67;0.50;;;15.50;84.70;;;;;;5062468;28;20461;-72
2022/09/11 10:18:38;;;;;;;1.13;0.40;;;15.40;84.60;;;;;;5068192;28;20116;-73
2022/09/11 10:21:21;;;;;;;3.15;0.38;;;15.40;85.00;;;;;;5064174;28;20040;-73
2022/09/11 10:24:18;;;;;;;2.78;0.30;;;15.30;85.20;;;;;;5063739;28;20142;-73
2022/09/11 10:26:49;;;;;;;1.85;0.17;;;15.20;85.60;;;;;;5052521;28;20407;-74
2022/09/11 10:29:20;;;;;;;1.25;0.20;;;15.20;86.30;;;;;;5056813;28;20526;-73
2022/09/11 10:31:56;;;;;;;0.70;0.40;;;15.10;86.20;;;;;;5054382;28;20576;-73
2022/09/11 10:34:23;;;;;;;;;;;15.00;87.00;;;;;;5068765;28;20032;-74
2022/09/11 10:37:01;;;;;;;2.90;0.90;;;14.90;86.60;;;;;;5059406;28;19909;-74
2022/09/11 10:39:32;;;;;;;3.08;0.65;;;14.80;87.00;;;;;;5060026;28;20549;-74
2022/09/11 10:42:11;;;;;;;1.95;0.55;;;14.70;87.90;;;;;;5066721;28;20045;-73
2022/09/11 10:44:46;;;;;;;2.38;0.68;;;14.60;88.90;;;;;;5070272;28;20063;-72
2022/09/11 10:47:39;;;;;;;0.88;0.60;;;14.50;89.50;;;;;;5064155;28;20032;-74
2022/09/11 10:50:19;;;;;;;1.33;0.57;;;14.40;89.30;;;;;;5050621;28;20033;-73
2022/09/11 10:52:58;;;;;;;3.63;0.70;;;14.30;90.00;;;;;;5063079;28;20036;-72
2022/09/11 10:55:36;;;;;;;1.17;0.63;;;14.30;90.00;;;;;;5058233;28;20050;-74
2022/09/11 10:58:32;;;;;;;0.82;0.40;;;14.20;89.80;;;;;;5069731;28;20036;-73
2022/09/11 11:01:00;;;;;;;0.93;0.75;;;14.10;90.10;;;;;;5057386;28;20398;-73
2022/09/11 11:03:28;;;;;;;2.78;0.65;;;14.00;90.60;;;;;;5070665;28;20032;-75
2022/09/11 11:06:14;;;;;;;1.63;0.50;;;14.00;90.70;;;;;;5056076;28;20068;-73
2022/09/11 11:09:02;;;;;;;2.73;0.57;;;13.90;90.60;;;;;;5068320;28;20032;-74
2022/09/11 11:11:36;;;;;;;3.40;1.40;;;13.80;90.60;;;;;;5057971;28;20038;-74
2022/09/11 11:14:40;;;;;;;0.85;0.77;;;13.80;90.70;;;;;;5069727;28;20028;-74
2022/09/11 11:17:27;;;;;;;1.15;0.82;;;13.70;90.90;;;;;;5062291;28;20028;-72
2022/09/11 11:20:30;;;;;;;2.88;0.55;;;13.60;91.10;;;;;;5060506;28;20028;-74
2022/09/11 11:23:30;;;;;;;2.65;0.80;;;13.60;91.20;;;;;;5051355;28;20556;-74
2022/09/11 11:26:02;;;;;;;3.38;0.40;;;13.50;91.20;;;;;;5063882;28;20032;-73
2022/09/11 11:28:33;;;;;;;0.88;0.47;;;13.40;91.50;;;;;;5072121;28;20550;-73
2022/09/11 11:31:14;;;;;;;2.50;0.50;;;13.40;91.70;;;;;;5057598;28;20612;-73
2022/09/11 11:33:59;;;;;;;1.85;0.73;;;13.30;91.90;;;;;;5053237;28;20475;-73
2022/09/11 11:36:47;;;;;;;1.85;0.50;;;13.20;92.00;;;;;;5057574;28;20116;-73
2022/09/11 11:39:28;;;;;;;1.70;0.57;;;13.10;92.00;;;;;;5064606;28;20025;-73
2022/09/11 11:42:38;;;;;;;1.60;0.80;;;13.10;92.20;;;;;;5054740;28;20044;-73
2022/09/11 11:45:32;;;;;;;1.85;1.33;;;13.10;92.40;;;;;;5059252;28;20040;-73
2022/09/11 11:48:12;;;;;;;2.55;1.52;;;13.00;92.40;;;;;;5064221;28;20422;-72
2022/09/11 11:50:56;;;;;;;2.85;1.05;;;12.90;92.30;;;;;;5069214;28;20110;-74
2022/09/11 11:53:46;;;;;;;4.88;2.30;;;12.80;92.30;;;;;;5072705;28;20418;-74
2022/09/11 11:56:21;;;;;;;3.92;2.03;;;12.80;92.40;;;;;;5070729;28;20466;-74
2022/09/11 11:59:35;;;;;;;12.83;3.20;;;12.80;92.60;;;;;;5059263;28;20033;-74
2022/09/11 12:02:09;;;;;;;2.97;0.82;;;12.70;92.50;;;;;;5066289;28;20483;-74
2022/09/11 12:04:50;;;;;;;2.28;0.60;;;12.60;92.50;;;;;;5059059;28;20027;-73
2022/09/11 12:07:35;;;;;;;0.45;0.30;;;12.60;92.60;;;;;;5063906;28;20124;-74
2022/09/11 12:10:05;;;;;;;0.80;0.22;;;12.50;92.60;;;;;;5060973;28;20032;-73
2022/09/11 12:12:46;;;;;;;2.47;1.13;;;12.50;93.10;;;;;;5060783;28;20407;-73
2022/09/11 12:15:23;;;;;;;1.95;0.68;;;12.40;93.30;;;;;;5058374;28;20466;-74
2022/09/11 12:18:18;;;;;;;3.13;1.05;;;12.30;93.90;;;;;;5068541;28;20087;-75
2022/09/11 12:20:45;;;;;;;5.47;0.75;;;12.10;94.50;;;;;;5059545;28;20040;-74
2022/09/11 12:24:02;;;;;;;2.28;0.40;;;12.00;94.40;;;;;;5068729;28;20608;-74
2022/09/11 12:26:30;;;;;;;1.63;0.63;;;11.80;94.60;;;;;;5048761;28;20029;-73
2022/09/11 12:29:14;;;;;;;1.23;0.70;;;11.70;95.20;;;;;;5082312;28;20051;-73
2022/09/11 12:31:51;;;;;;;1.05;0.40;;;11.60;95.60;;;;;;5063766;28;20041;-73
2022/09/11 12:34:22;;;;;;;1.45;0.43;;;11.50;95.30;;;;;;5054055;28;20553;-74
2022/09/11 12:36:50;;;;;;;1.13;0.22;;;11.50;95.60;;;;;;5058863;28;20075;-74
2022/09/11 12:39:26;;;;;;;5.20;0.60;;;11.40;95.60;;;;;;5073244;28;20016;-73
2022/09/11 12:42:13;;;;;;;3.50;0.40;;;11.40;95.90;;;;;;5066729;28;20068;-75
2022/09/11 12:45:01;;;;;;;1.02;0.68;;;11.30;96.10;;;;;;5059733;28;20115;-75
2022/09/11 12:47:33;;;;;;;1.52;0.60;;;11.20;96.20;;;;;;5066283;28;20035;-73
2022/09/11 12:50:21;;;;;;;0.68;0.52;;;11.20;96.30;;;;;;5077156;28;20039;-73
2022/09/11 12:52:53;;;;;;;2.03;0.80;;;11.20;96.50;;;;;;5057660;28;20501;-74
2022/09/11 12:55:32;;;;;;;2.15;0.68;;;11.20;96.60;;;;;;5053022;28;20116;-73
2022/09/11 12:58:05;;;;;;;3.08;0.43;;;11.10;96.30;;;;;;5072789;28;20043;-74
2022/09/11 13:00:46;;;;;;;2.25;0.73;;;11.00;96.60;;;;;;5059717;28;20024;-74
2022/09/11 13:03:26;;;;;;;0.50;0.40;;;11.00;96.70;;;;;;5086950;28;20788;-74
2022/09/11 13:06:06;;;;;;;2.75;0.70;;;11.00;96.70;;;;;;5068887;28;20024;-74
2022/09/11 13:08:48;;;;;;;1.30;0.32;;;10.90;96.90;;;;;;5080499;28;20031;-75
2022/09/11 13:11:43;;;;;;;4.15;0.40;;;10.80;96.90;;;;;;5077598;28;20028;-74
2022/09/11 13:14:29;;;;;;;2.80;0.30;;;10.80;97.20;;;;;;5069223;28;20036;-74
2022/09/11 13:17:01;;;;;;;0.30;0.30;;;10.80;96.80;;;;;;5066213;28;20032;-74
2022/09/11 13:19:37;;;;;;;2.63;0.43;;;10.80;96.40;;;;;;5054531;28;20496;-74
2022/09/11 13:22:29;;;;;;;3.15;0.40;;;10.80;96.00;;;;;;5068482;28;20044;-74
2022/09/11 13:25:15;;;;;;;0.57;0.20;;;10.90;95.80;;;;;;5072659;28;20036;-74
2022/09/11 13:27:58;;;;;;;0.32;0.20;;;10.90;95.50;;;;;;5054177;28;20111;-75
2022/09/11 13:30:26;;;;;;;1.83;0.38;;;11.00;95.20;;;;;;5082694;28;20032;-74
2022/09/11 13:33:17;;;;;;;3.40;0.35;;;11.00;94.80;;;;;;5073808;28;20040;-74